Terminal Aerodrome Forecast
Issued by NWS

Home | Current Version | Previous Version | Text Only | Print | Product List | Glossary On
Versions: 1 2 3 4 5 6 7 8 9 10 11 12 13 14 15 16 17 18 19 20 21
000
FTUS43 KAPX 180752 AAA
TAFMBL
TAF AMD
KMBL 180752Z 1808/1906 31003KT 6SM BR OVC004
      TEMPO 1808/1812 2SM BR OVC002
     FM181500 24007KT 3SM BR BKN003
     FM181800 22008KT P6SM BKN008
     FM182000 21008KT P6SM BKN050
     FM182200 21008KT P6SM SCT070=

USA.gov is the U.S. government's official web portal to all federal, state and local government web resources and services.